EDLV 192350Z AUTO 12002KT 0300 R27/1400D // FEW008/// 12/12 Q1022 EDLV 192320Z AUTO 14002KT 2900 // NCD 12/12 Q1022 EDLV 192250Z AUTO VRB01KT 4500 // NCD 13/12 Q1022 EDLV 192220Z AUTO 31003KT 7000 // NCD 15/13 Q1022 EDLV 192150Z 26003KT CAVOK 15/13 Q1022 EDLV 192120Z 28004KT CAVOK 15/13 Q1021 EDLV 192050Z 28006KT CAVOK 16/14 Q1021 EDLV 192020Z 29006KT CAVOK 17/14 Q1021 EDLV 191950Z 29006KT 260V320 CAVOK 17/14 Q1021 EDLV 191920Z 30007KT 270V330 CAVOK 18/15 Q1020 EDLV 191850Z 29008KT CAVOK 19/15 Q1020 EDLV 191820Z 27009KT 9999 BKN020 20/16 Q1020 EDLV 191750Z 24009KT 9999 SCT023 BKN031 21/17 Q1019 EDLV 191720Z 24008KT 220V300 9999 FEW024 SCT033 21/16 Q1019 EDLV 191650Z 22009KT 9999 FEW038 21/16 Q1019 EDLV 191620Z 22009KT CAVOK 21/17 Q1019 EDLV 191550Z 21005KT 170V240 CAVOK 20/17 Q1019 EDLV 191520Z 17003KT 120V200 CAVOK 19/16 Q1018 EDLV 191450Z VRB02KT CAVOK 18/16 Q1017 EDLV 191420Z 02004KT 320V130 9999 VCSH NSC 18/16 Q1018 EDLV 191350Z 32003KT 270V030 9999 VCSH FEW 030 18/16 Q1018 EDLV 191320Z 31006KT 280V360 CAVOK 17/16 Q1018 EDLV 191250Z 31014G28KT 280V340 3200 VCTS FEW007 BKN034CB 16/15 Q1017 RETSRA EDLV 191220Z 18006KT 150V240 5000 SHRA VCTS FEW032CB 26/13 Q1017 EDLV 191150Z 15008KT CAVOK 28/16 Q1015 EDLV 191120Z 13009KT 100V170 CAVOK 28/15 Q1015 EDLV 191050Z 14010KT 090V170 CAVOK 28/14 Q1015 EDLV 191020Z 12009KT CAVOK 27/15 Q1016 EDLV 190950Z 14009KT 090V170 CAVOK 27/15 Q1016 EDLV 190920Z 13009KT 090V160 CAVOK 26/15 Q1017 EDLV 190850Z 11005KT 050V160 CAVOK 24/15 Q1017 EDLV 190820Z 13005KT 100V160 CAVOK 22/15 Q1017 EDLV 190750Z 12007KT CAVOK 22/15 Q1016 EDLV 190720Z 11005KT 050V160 CAVOK 22/15 Q1017 EDLV 190650Z 09004KT 060V160 CAVOK 22/15 Q1017 EDLV 190620Z VRB02KT CAVOK 22/15 Q1018 EDLV 190550Z 11002KT 9999 // NSC 20/16 Q1018 EDLV 190520Z VRB02KT CAVOK 19/15 Q1018 EDLV 190450Z VRB02KT CAVOK 19/14 Q1018 EDLV 190420Z 21006KT 160V280 CAVOK 20/14 Q1018 EDLV 190350Z 15006KT CAVOK 20/13 Q1017 EDLV 190320Z 14007KT CAVOK 20/13 Q1017 EDLV 190250Z 14007KT CAVOK 20/14 Q1017 EDLV 190220Z AUTO 13006KT 9999 // NCD 20/14 Q1017 EDLV 190150Z AUTO 14006KT 9999 // NCD 20/15 Q1017 EDLV 190120Z AUTO 11004KT 9999 // NCD 18/16 Q1017 EDLV 190050Z AUTO 11004KT 7000 // NCD 18/16 Q1017 EDLV 190020Z AUTO VRB02KT 8000 // NCD 18/16 Q1017 EDLV 182350Z AUTO VRB02KT 9000 // NCD 19/16 Q1018 EDLV 182320Z AUTO 03003KT 330V060 9999 // NCD 19/16 Q1018 EDLV 182250Z AUTO 05003KT 010V100 9999 // NCD 19/16 Q1018 EDLV 182220Z AUTO 04004KT 360V070 9999 // NCD 20/16 Q1019 EDLV 182150Z 03003KT 350V060 CAVOK 21/17 Q1019 EDLV 182120Z VRB02KT CAVOK 21/17 Q1019 EDLV 182050Z VRB02KT CAVOK 22/16 Q1019 EDLV 182020Z VRB02KT CAVOK 22/16 Q1019 EDLV 181950Z VRB02KT CAVOK 23/16 Q1019 EDLV 181920Z VRB02KT CAVOK 24/16 Q1019 EDLV 181850Z 00000KT CAVOK 24/17 Q1019 EDLV 181820Z VRB01KT CAVOK 25/17 Q1019 EDLV 181750Z 32004KT 290V020 CAVOK 25/17 Q1019 EDLV 181720Z 32003KT 270V020 CAVOK 26/16 Q1019 EDLV 181650Z 32004KT 280V020 CAVOK 26/16 Q1019 EDLV 181620Z 31005KT 270V350 CAVOK 26/16 Q1019 EDLV 181550Z 32005KT 290V010 CAVOK 27/16 Q1019 EDLV 181520Z 32005KT 260V360 CAVOK 27/16 Q1019 EDLV 181450Z 30005KT 250V350 CAVOK 27/16 Q1020 EDLV 181420Z 30007KT 220V350 CAVOK 27/15 Q1020 EDLV 181350Z 26007KT 230V300 CAVOK 28/15 Q1020 EDLV 181320Z 22008KT 130V280 CAVOK 27/15 Q1020 EDLV 181250Z 24008KT 190V270 CAVOK 28/14 Q1020 EDLV 181220Z VRB08KT CAVOK 28/14 Q1020

METAR Messwerte "NIEDERRHEIN" EDLV

Zurück zur Übersicht

Ortsname
Ländercode / m ü. NN
Zeit Temperatur Taupunkt Rel.
Luftfeuchte
Luftdruck:
Altimeter
NN
Station
Wind in Beaufort
(Knoten)
Sichtweite
(Meter)
Wolken
(Meter über Grund)
Wettererscheinung
NIEDERRHEIN
DE 27
Fr 20.05. 01:501212100 %1022
1022
1019
OSO 1 (2)300Leicht bewölkt (240) 
NIEDERRHEIN
DE 27
Fr 20.05. 01:201212100 %1022
1022
1019
SO 1 (2)2900  
NIEDERRHEIN
DE 27
Fr 20.05. 00:50131294 %1022
1022
1019
Uml 1 (1)4500  
NIEDERRHEIN
DE 27
Fr 20.05. 00:20151388 %1022
1022
1019
NW 2 (3)7000  
NIEDERRHEIN
DE 27
Do 19.05. 23:50151388 %1022
1022
1019
W 2 (3)>= 10000Nicht signifikant 
NIEDERRHEIN
DE 27
Do 19.05. 23:20151388 %1021
1021
1018
W 2 (4)>= 10000Nicht signifikant 
NIEDERRHEIN
DE 27
Do 19.05. 22:50161488 %1021
1021
1018
W 2 (6)>= 10000Nicht signifikant 
NIEDERRHEIN
DE 27
Do 19.05. 22:20171482 %1021
1021
1018
WNW 2 (6)>= 10000Nicht signifikant 
NIEDERRHEIN
DE 27
Do 19.05. 21:50171482 %1021
1021
1018
WNW 2 (6)
W - NW
>= 10000Nicht signifikant 
NIEDERRHEIN
DE 27
Do 19.05. 21:20181583 %1020
1020
1017
WNW 3 (7)
W - NNW
>= 10000Nicht signifikant 
NIEDERRHEIN
DE 27
Do 19.05. 20:50191578 %1020
1020
1017
WNW 3 (8)>= 10000Nicht signifikant 
NIEDERRHEIN
DE 27
Do 19.05. 20:20201678 %1020
1020
1017
W 3 (9)>= 10000Stark bewölkt (610) 
NIEDERRHEIN
DE 27
Do 19.05. 19:50211778 %1019
1019
1016
WSW 3 (9)>= 10000Stark bewölkt (940)
Wolkig (700)
 
NIEDERRHEIN
DE 27
Do 19.05. 19:20211673 %1019
1019
1016
WSW 3 (8)
SW - WNW
>= 10000Wolkig (1000)
Leicht bewölkt (730)
 
NIEDERRHEIN
DE 27
Do 19.05. 18:50211673 %1019
1019
1016
SW 3 (9)>= 10000Leicht bewölkt (1200) 
NIEDERRHEIN
DE 27
Do 19.05. 18:20211778 %1019
1019
1016
SW 3 (9)>= 10000Nicht signifikant 
NIEDERRHEIN
DE 27
Do 19.05. 17:50201783 %1019
1019
1016
SSW 2 (5)
S - WSW
>= 10000Nicht signifikant 
NIEDERRHEIN
DE 27
Do 19.05. 17:20191683 %1018
1018
1015
S 2 (3)
OSO - SSW
>= 10000Nicht signifikant 
NIEDERRHEIN
DE 27
Do 19.05. 16:50181688 %1017
1017
1014
Uml 1 (2)>= 10000Nicht signifikant 
NIEDERRHEIN
DE 27
Do 19.05. 16:20181688 %1018
1018
1015
NNO 2 (4)
NW - SO
>= 10000Nicht signifikant 
NIEDERRHEIN
DE 27
Do 19.05. 15:50181688 %1018
1018
1015
NW 2 (3)
W - NNO
>= 10000  
NIEDERRHEIN
DE 27
Do 19.05. 15:20171694 %1018
1018
1015
NW 2 (6)
W - N
>= 10000Nicht signifikant 
NIEDERRHEIN
DE 27
Do 19.05. 14:50161594 %1017
1017
1014
NW 4 (14) - 7 (28)
W - NNW
3200Stark bewölkt Cb (1000)
Leicht bewölkt (210)
 
NIEDERRHEIN
DE 27
Do 19.05. 14:20261345 %1017
1017
1014
S 2 (6)
SSO - WSW
5000Leicht bewölkt Cb (980)Regen-Schauer
NIEDERRHEIN
DE 27
Do 19.05. 13:50281648 %1015
1015
1012
SSO 3 (8)>= 10000Nicht signifikant 
NIEDERRHEIN
DE 27
Do 19.05. 13:20281545 %1015
1015
1012
SO 3 (9)
O - S
>= 10000Nicht signifikant 
NIEDERRHEIN
DE 27
Do 19.05. 12:50281442 %1015
1015
1012
SO 3 (10)
O - S
>= 10000Nicht signifikant 
NIEDERRHEIN
DE 27
Do 19.05. 12:20271548 %1016
1016
1013
OSO 3 (9)>= 10000Nicht signifikant 
NIEDERRHEIN
DE 27
Do 19.05. 11:50271548 %1016
1016
1013
SO 3 (9)
O - S
>= 10000Nicht signifikant 
NIEDERRHEIN
DE 27
Do 19.05. 11:20261551 %1017
1017
1014
SO 3 (9)
O - SSO
>= 10000Nicht signifikant 
NIEDERRHEIN
DE 27
Do 19.05. 10:50241557 %1017
1017
1014
OSO 2 (5)
NO - SSO
>= 10000Nicht signifikant 
NIEDERRHEIN
DE 27
Do 19.05. 10:20221565 %1017
1017
1014
SO 2 (5)
O - SSO
>= 10000Nicht signifikant 
NIEDERRHEIN
DE 27
Do 19.05. 09:50221565 %1016
1016
1013
OSO 3 (7)>= 10000Nicht signifikant 
NIEDERRHEIN
DE 27
Do 19.05. 09:20221565 %1017
1017
1014
OSO 2 (5)
NO - SSO
>= 10000Nicht signifikant 
NIEDERRHEIN
DE 27
Do 19.05. 08:50221565 %1017
1017
1014
O 2 (4)
ONO - SSO
>= 10000Nicht signifikant 
NIEDERRHEIN
DE 27
Do 19.05. 08:20221565 %1018
1018
1015
Uml 1 (2)>= 10000Nicht signifikant 
NIEDERRHEIN
DE 27
Do 19.05. 07:50201678 %1018
1018
1015
OSO 1 (2)>= 10000Nicht signifikant 
NIEDERRHEIN
DE 27
Do 19.05. 07:20191578 %1018
1018
1015
Uml 1 (2)>= 10000Nicht signifikant 
NIEDERRHEIN
DE 27
Do 19.05. 06:50191473 %1018
1018
1015
Uml 1 (2)>= 10000Nicht signifikant 
NIEDERRHEIN
DE 27
Do 19.05. 06:20201468 %1018
1018
1015
SSW 2 (6)
SSO - W
>= 10000Nicht signifikant 
NIEDERRHEIN
DE 27
Do 19.05. 05:50201364 %1017
1017
1014
SSO 2 (6)>= 10000Nicht signifikant 
NIEDERRHEIN
DE 27
Do 19.05. 05:20201364 %1017
1017
1014
SO 3 (7)>= 10000Nicht signifikant 
NIEDERRHEIN
DE 27
Do 19.05. 04:50201468 %1017
1017
1014
SO 3 (7)>= 10000Nicht signifikant 
NIEDERRHEIN
DE 27
Do 19.05. 04:20201468 %1017
1017
1014
SO 2 (6)>= 10000  
NIEDERRHEIN
DE 27
Do 19.05. 03:50201573 %1017
1017
1014
SO 2 (6)>= 10000  
NIEDERRHEIN
DE 27
Do 19.05. 03:20181688 %1017
1017
1014
OSO 2 (4)>= 10000  
NIEDERRHEIN
DE 27
Do 19.05. 02:50181688 %1017
1017
1014
OSO 2 (4)7000  
NIEDERRHEIN
DE 27
Do 19.05. 02:20181688 %1017
1017
1014
Uml 1 (2)8000  
NIEDERRHEIN
DE 27
Do 19.05. 01:50191683 %1018
1018
1015
Uml 1 (2)9000  
NIEDERRHEIN
DE 27
Do 19.05. 01:20191683 %1018
1018
1015
NNO 2 (3)
NNW - ONO
>= 10000  
NIEDERRHEIN
DE 27
Do 19.05. 00:50191683 %1018
1018
1015
NO 2 (3)
N - O
>= 10000  
NIEDERRHEIN
DE 27
Do 19.05. 00:20201678 %1019
1019
1016
NO 2 (4)
N - ONO
>= 10000  
NIEDERRHEIN
DE 27
Mi 18.05. 23:50211778 %1019
1019
1016
NNO 2 (3)
N - ONO
>= 10000Nicht signifikant 
NIEDERRHEIN
DE 27
Mi 18.05. 23:20211778 %1019
1019
1016
Uml 1 (2)>= 10000Nicht signifikant 
NIEDERRHEIN
DE 27
Mi 18.05. 22:50221669 %1019
1019
1016
Uml 1 (2)>= 10000Nicht signifikant 
NIEDERRHEIN
DE 27
Mi 18.05. 22:20221669 %1019
1019
1016
Uml 1 (2)>= 10000Nicht signifikant 
NIEDERRHEIN
DE 27
Mi 18.05. 21:50231665 %1019
1019
1016
Uml 1 (2)>= 10000Nicht signifikant 
NIEDERRHEIN
DE 27
Mi 18.05. 21:20241661 %1019
1019
1016
Uml 1 (2)>= 10000Nicht signifikant 
NIEDERRHEIN
DE 27
Mi 18.05. 20:50241765 %1019
1019
1016
Windstill>= 10000Nicht signifikant 
NIEDERRHEIN
DE 27
Mi 18.05. 20:20251761 %1019
1019
1016
Uml 1 (1)>= 10000Nicht signifikant 
NIEDERRHEIN
DE 27
Mi 18.05. 19:50251761 %1019
1019
1016
NW 2 (4)
WNW - NNO
>= 10000Nicht signifikant 
NIEDERRHEIN
DE 27
Mi 18.05. 19:20261654 %1019
1019
1016
NW 2 (3)
W - NNO
>= 10000Nicht signifikant 
NIEDERRHEIN
DE 27
Mi 18.05. 18:50261654 %1019
1019
1016
NW 2 (4)
W - NNO
>= 10000Nicht signifikant 
NIEDERRHEIN
DE 27
Mi 18.05. 18:20261654 %1019
1019
1016
NW 2 (5)
W - N
>= 10000Nicht signifikant 
NIEDERRHEIN
DE 27
Mi 18.05. 17:50271651 %1019
1019
1016
NW 2 (5)
WNW - N
>= 10000Nicht signifikant 
NIEDERRHEIN
DE 27
Mi 18.05. 17:20271651 %1019
1019
1016
NW 2 (5)
W - N
>= 10000Nicht signifikant 
NIEDERRHEIN
DE 27
Mi 18.05. 16:50271651 %1020
1020
1017
WNW 2 (5)
WSW - N
>= 10000Nicht signifikant 
NIEDERRHEIN
DE 27
Mi 18.05. 16:20271548 %1020
1020
1017
WNW 3 (7)
SW - N
>= 10000Nicht signifikant 
NIEDERRHEIN
DE 27
Mi 18.05. 15:50281545 %1020
1020
1017
W 3 (7)
SW - WNW
>= 10000Nicht signifikant 
NIEDERRHEIN
DE 27
Mi 18.05. 15:20271548 %1020
1020
1017
SW 3 (8)
SO - W
>= 10000Nicht signifikant 
NIEDERRHEIN
DE 27
Mi 18.05. 14:50281442 %1020
1020
1017
WSW 3 (8)
S - W
>= 10000Nicht signifikant 
NIEDERRHEIN
DE 27
Mi 18.05. 14:20281442 %1020
1020
1017
Uml 3 (8)>= 10000Nicht signifikant 

Altimeter: Einstellung am Altimeter (Höhenmesser), die Höhe 0 muss auf diesen Luftdruckwert zeigen, damit das Gerät die Stationshöhe richtig anzeigt.

NN: Luftdruck reduziert auf "Normal Null", auf Meereshöhe, dieser von der Temperatur abhängige Wert wird bisweilen unkorrekt einfach als "Luftdruck" bezeichnet. Eigentlich nur eine fiktive Größe, die es erlaubt, Stationen auf unterschiedlichen Höhen miteinander zu vergleichen.

Station: Realer Luftdruck an der Station.